Time;durP1;ratioP1;P1;durP2;ratioP2;P2;SDS_P1;SDS_P2;PMS_P1;PMS_P2;Temp;Humidity;BMP_temperature;BMP_pressure;BME280_temperature;BME280_humidity;BME280_pressure;Samples;Min_cycle;Max_cycle;Signal;HPM_P1;HPM_P2
2021/11/23 00:00:50;;;;;;;;;;;23.30;94.60;;;;;;4257710;27;20047;-69
2021/11/23 00:02:54;;;;;;;6.43;3.45;;;23.50;94.20;;;;;;4257356;27;19923;-70
2021/11/23 00:05:05;;;;;;;10.43;4.50;;;23.70;93.70;;;;;;4256245;27;20086;-70
2021/11/23 00:07:10;;;;;;;9.85;4.82;;;23.60;93.80;;;;;;4256791;27;20037;-70
2021/11/23 00:09:15;;;;;;;14.43;5.22;;;23.60;93.70;;;;;;4257392;27;20564;-70
2021/11/23 00:11:19;;;;;;;15.73;6.28;;;23.50;93.70;;;;;;4256662;27;20492;-69
2021/11/23 00:13:24;;;;;;;15.27;6.57;;;23.30;93.80;;;;;;4257900;27;20047;-69
2021/11/23 00:15:30;;;;;;;20.20;7.75;;;22.90;94.50;;;;;;4257129;27;20042;-69
2021/11/23 00:17:34;;;;;;;20.48;8.30;;;22.90;94.80;;;;;;4253088;27;20066;-69
2021/11/23 00:19:39;;;;;;;20.65;7.50;;;23.10;94.60;;;;;;4245879;27;20088;-69
2021/11/23 00:21:43;;;;;;;21.45;6.43;;;23.20;94.30;;;;;;4248443;27;20051;-70
2021/11/23 00:23:48;;;;;;;13.52;5.38;;;23.30;94.20;;;;;;4243699;27;20382;-69
2021/11/23 00:43:04;;;;;;;15.75;2.58;;;23.20;93.60;;;;;;4210284;27;20476;-61
2021/11/23 00:45:09;;;;;;;4.75;2.00;;;23.80;93.30;;;;;;4198282;28;20115;-62
2021/11/23 00:47:14;;;;;;;5.82;2.20;;;23.70;93.00;;;;;;4209523;28;20563;-61
2021/11/23 00:49:34;;;;;;;6.35;2.78;;;23.60;93.00;;;;;;4210824;28;20438;-61
2021/11/23 00:51:39;;;;;;;13.10;2.83;;;23.60;93.20;;;;;;4209541;28;20449;-61
2021/11/23 00:53:44;;;;;;;6.00;2.20;;;23.70;93.00;;;;;;4212927;28;20454;-61
2021/11/23 00:55:49;;;;;;;7.75;1.92;;;23.70;92.70;;;;;;4216435;28;20414;-61
2021/11/23 00:57:54;;;;;;;5.78;2.17;;;24.00;92.30;;;;;;4215670;28;20134;-61
2021/11/23 00:59:59;;;;;;;5.03;1.92;;;24.10;92.20;;;;;;4217317;28;20476;-61
2021/11/23 01:02:04;;;;;;;9.75;1.92;;;24.00;91.90;;;;;;4199481;28;20037;-61
2021/11/23 01:04:09;;;;;;;3.90;1.55;;;24.00;91.90;;;;;;4217189;28;20086;-61
2021/11/23 01:06:14;;;;;;;7.72;1.80;;;24.10;91.80;;;;;;4214901;28;20113;-62
2021/11/23 01:08:19;;;;;;;5.10;1.90;;;24.10;91.70;;;;;;4218353;28;20100;-61
2021/11/23 01:10:24;;;;;;;10.02;2.20;;;24.20;91.40;;;;;;4216933;28;20094;-61
2021/11/23 01:12:29;;;;;;;9.93;2.25;;;24.30;91.40;;;;;;4215989;28;20070;-61
2021/11/23 01:14:35;;;;;;;7.20;2.17;;;24.30;91.20;;;;;;4217894;28;20040;-61
2021/11/23 01:16:44;;;;;;;6.65;1.65;;;24.20;90.50;;;;;;4215616;28;20379;-61
2021/11/23 01:18:49;;;;;;;8.60;2.20;;;24.20;90.60;;;;;;4217894;28;20063;-61
2021/11/23 01:20:56;;;;;;;8.55;2.10;;;24.30;90.70;;;;;;4217849;28;20116;-61
2021/11/23 01:23:01;;;;;;;4.80;2.00;;;24.40;90.90;;;;;;4204048;28;20567;-62
2021/11/23 01:25:06;;;;;;;4.28;2.17;;;24.40;90.80;;;;;;4209711;28;20064;-61
2021/11/23 01:27:10;;;;;;;6.93;2.30;;;24.50;90.40;;;;;;4208697;28;20515;-61
2021/11/23 01:29:17;;;;;;;4.18;2.22;;;24.40;90.90;;;;;;4214556;28;20036;-61
2021/11/23 01:31:22;;;;;;;5.28;2.35;;;24.50;90.40;;;;;;4221785;28;20123;-61
2021/11/23 01:33:27;;;;;;;6.32;2.80;;;24.60;90.50;;;;;;4218057;28;20394;-62
2021/11/23 01:35:31;;;;;;;6.57;2.60;;;24.80;90.40;;;;;;4219232;28;20131;-62
2021/11/23 01:37:36;;;;;;;45.90;4.25;;;24.80;90.20;;;;;;4224504;28;20044;-62
2021/11/23 01:39:41;;;;;;;4.90;2.70;;;24.90;90.10;;;;;;4223204;28;20048;-62
2021/11/23 01:41:46;;;;;;;7.38;2.67;;;24.80;90.00;;;;;;4217422;28;20071;-62
2021/11/23 01:43:51;;;;;;;6.47;3.00;;;24.90;90.00;;;;;;4206692;28;20148;-63
2021/11/23 01:45:55;;;;;;;6.20;2.60;;;24.90;90.10;;;;;;4213251;28;20075;-62
2021/11/23 01:48:00;;;;;;;5.40;3.05;;;24.80;89.30;;;;;;4213099;28;20409;-62
2021/11/23 01:50:09;;;;;;;9.38;3.60;;;24.80;89.40;;;;;;4208763;28;20055;-62
2021/11/23 01:52:14;;;;;;;6.70;2.67;;;24.90;89.30;;;;;;4211227;28;20102;-62
2021/11/23 01:54:18;;;;;;;3.60;2.40;;;24.90;89.10;;;;;;4213286;28;20043;-62
2021/11/23 01:56:23;;;;;;;4.38;2.42;;;24.90;89.50;;;;;;4209704;28;20123;-63
2021/11/23 01:58:27;;;;;;;23.63;3.00;;;24.80;89.40;;;;;;4204919;28;20040;-63
2021/11/23 02:00:33;;;;;;;7.40;2.50;;;24.90;89.60;;;;;;4204937;28;20051;-63
2021/11/23 02:02:38;;;;;;;3.03;2.10;;;24.90;89.40;;;;;;4203933;28;20483;-63
2021/11/23 02:04:42;;;;;;;5.55;2.72;;;24.80;89.40;;;;;;4202588;28;20086;-63
2021/11/23 02:06:47;;;;;;;13.63;2.88;;;25.00;89.20;;;;;;4202036;28;20040;-63
2021/11/23 02:08:52;;;;;;;9.73;2.47;;;25.10;88.90;;;;;;4204763;28;20128;-63
2021/11/23 02:10:56;;;;;;;4.78;2.20;;;25.20;88.60;;;;;;4203948;28;20049;-63
2021/11/23 02:13:00;;;;;;;6.65;2.80;;;25.10;88.20;;;;;;4199911;28;20037;-63
2021/11/23 02:15:06;;;;;;;4.43;2.42;;;25.10;88.70;;;;;;4205551;28;20553;-63
2021/11/23 02:17:11;;;;;;;2.90;2.00;;;25.20;88.60;;;;;;4205273;28;20051;-63
2021/11/23 02:19:16;;;;;;;7.20;2.55;;;25.30;88.50;;;;;;4203169;28;20131;-63
2021/11/23 02:21:20;;;;;;;4.07;2.20;;;25.40;88.50;;;;;;4204370;28;20040;-64
2021/11/23 02:23:26;;;;;;;4.25;2.42;;;25.50;88.30;;;;;;4201924;28;20045;-63
2021/11/23 02:25:30;;;;;;;7.20;2.28;;;25.50;87.50;;;;;;4210992;28;20036;-63
2021/11/23 02:27:36;;;;;;;3.38;2.30;;;25.60;87.40;;;;;;4212302;28;20044;-64
2021/11/23 02:29:43;;;;;;;5.22;2.13;;;25.60;87.40;;;;;;4212467;28;20068;-63
2021/11/23 02:31:47;;;;;;;5.13;2.20;;;25.60;87.20;;;;;;4210544;28;20506;-63
2021/11/23 02:33:51;;;;;;;3.03;2.22;;;25.70;86.90;;;;;;4204564;28;20040;-63
2021/11/23 02:36:00;;;;;;;3.85;1.73;;;25.70;86.80;;;;;;4204815;28;20109;-63
2021/11/23 02:38:05;;;;;;;5.28;1.75;;;25.80;86.60;;;;;;4199690;28;20040;-64
2021/11/23 02:40:10;;;;;;;3.25;1.80;;;25.90;86.30;;;;;;4204649;28;20170;-63
2021/11/23 02:42:14;;;;;;;6.75;1.77;;;26.00;85.90;;;;;;4203555;28;20037;-63
2021/11/23 02:44:19;;;;;;;4.75;1.75;;;26.00;85.70;;;;;;4205069;28;20048;-64
2021/11/23 02:46:24;;;;;;;4.80;1.90;;;26.00;85.90;;;;;;4202008;28;20032;-63
2021/11/23 02:48:28;;;;;;;4.07;1.70;;;26.10;85.70;;;;;;4204175;28;20048;-64
2021/11/23 02:50:32;;;;;;;3.17;1.58;;;26.10;85.50;;;;;;4204004;28;20562;-63
2021/11/23 02:52:37;;;;;;;2.58;1.30;;;26.20;84.80;;;;;;4204332;28;20052;-63
2021/11/23 02:54:55;;;;;;;4.78;1.55;;;26.20;84.70;;;;;;4197194;28;20576;-63
2021/11/23 02:56:59;;;;;;;4.20;1.50;;;26.20;83.80;;;;;;4204060;28;20060;-64
2021/11/23 02:59:04;;;;;;;3.95;1.30;;;26.20;84.10;;;;;;4201804;28;20040;-63
2021/11/23 03:01:09;;;;;;;3.53;1.60;;;26.30;84.40;;;;;;4203812;28;20519;-63
2021/11/23 03:03:15;;;;;;;6.90;1.90;;;26.40;84.20;;;;;;4200675;28;20513;-63
2021/11/23 03:05:21;;;;;;;3.33;1.60;;;26.40;84.20;;;;;;4202429;28;20147;-63
2021/11/23 03:07:28;;;;;;;10.50;2.33;;;26.40;84.00;;;;;;4199568;28;20443;-63
2021/11/23 03:09:33;;;;;;;10.27;1.88;;;26.50;84.00;;;;;;4205807;28;20098;-61
2021/11/23 03:11:38;;;;;;;5.82;1.58;;;26.50;84.30;;;;;;4210773;28;20067;-62
2021/11/23 03:13:42;;;;;;;2.22;1.10;;;26.50;84.10;;;;;;4207666;28;20051;-63
2021/11/23 03:15:47;;;;;;;9.18;1.30;;;26.60;83.70;;;;;;4206110;28;20054;-63
2021/11/23 03:17:51;;;;;;;3.45;1.02;;;26.60;83.80;;;;;;4210710;28;20496;-63
2021/11/23 03:19:55;;;;;;;2.97;1.20;;;26.70;83.80;;;;;;4211585;28;20048;-63
2021/11/23 03:22:02;;;;;;;3.50;1.10;;;26.80;83.10;;;;;;4211054;28;20121;-63
2021/11/23 03:24:07;;;;;;;3.97;1.23;;;26.70;82.80;;;;;;4206928;28;20296;-62
2021/11/23 03:26:12;;;;;;;3.72;1.30;;;26.70;82.90;;;;;;4204183;28;20028;-62
2021/11/23 03:28:16;;;;;;;2.63;1.15;;;26.70;82.90;;;;;;4211549;28;20969;-62
2021/11/23 03:30:25;;;;;;;2.38;1.20;;;26.80;82.80;;;;;;4211134;28;20040;-62
2021/11/23 03:32:34;;;;;;;2.17;1.20;;;26.80;82.60;;;;;;4210158;28;20042;-63
2021/11/23 03:34:39;;;;;;;3.03;1.10;;;26.80;82.70;;;;;;4209507;28;20035;-63
2021/11/23 03:36:44;;;;;;;1.95;1.20;;;26.90;82.70;;;;;;4203653;28;20078;-62
2021/11/23 03:38:48;;;;;;;4.00;1.55;;;26.90;82.60;;;;;;4211572;28;20469;-63
2021/11/23 03:40:53;;;;;;;3.63;2.08;;;26.90;82.40;;;;;;4211056;28;20109;-63
2021/11/23 03:42:57;;;;;;;4.80;1.70;;;27.00;82.30;;;;;;4205604;28;20048;-63
2021/11/23 03:45:02;;;;;;;7.55;3.50;;;27.10;82.60;;;;;;4211191;28;20561;-63
2021/11/23 03:47:09;;;;;;;20.23;14.63;;;27.10;82.70;;;;;;4210405;28;20135;-63
2021/11/23 03:49:13;;;;;;;5.88;3.13;;;27.20;82.50;;;;;;4203340;28;20037;-63
2021/11/23 03:51:19;;;;;;;6.80;1.45;;;27.20;80.70;;;;;;4201536;28;20062;-63
2021/11/23 03:53:23;;;;;;;5.75;2.97;;;27.10;81.00;;;;;;4202857;28;20520;-62
2021/11/23 03:55:27;;;;;;;4.53;2.58;;;27.10;81.70;;;;;;4198142;28;20066;-62
2021/11/23 03:57:32;;;;;;;9.70;3.72;;;27.20;82.30;;;;;;4207745;28;20044;-62
2021/11/23 03:59:46;;;;;;;7.90;4.15;;;27.30;81.60;;;;;;4196815;28;20490;-63
2021/11/23 04:01:52;;;;;;;7.07;3.17;;;27.30;81.90;;;;;;4208107;28;20122;-63
2021/11/23 04:03:57;;;;;;;5.45;2.42;;;27.30;82.20;;;;;;4206230;28;20063;-63
2021/11/23 04:06:05;;;;;;;4.57;2.65;;;27.40;82.10;;;;;;4210744;28;20118;-62
2021/11/23 04:08:09;;;;;;;2.92;1.83;;;27.50;82.40;;;;;;4206182;28;20059;-63
2021/11/23 04:10:15;;;;;;;13.05;4.78;;;27.50;82.30;;;;;;4195274;28;20061;-62
2021/11/23 04:12:20;;;;;;;4.55;1.92;;;27.50;82.10;;;;;;4205178;28;20041;-63
2021/11/23 04:14:24;;;;;;;3.00;1.60;;;27.50;81.60;;;;;;4194689;28;20127;-63
2021/11/23 04:16:30;;;;;;;2.42;1.38;;;27.60;82.30;;;;;;4204215;28;20062;-63
2021/11/23 04:18:35;;;;;;;4.05;1.50;;;27.70;82.20;;;;;;4206882;28;20044;-63
2021/11/23 04:20:39;;;;;;;3.75;1.65;;;27.60;81.40;;;;;;4209103;28;20081;-63
2021/11/23 04:22:44;;;;;;;5.07;1.40;;;27.60;81.10;;;;;;4209510;28;20048;-63
2021/11/23 04:24:49;;;;;;;2.03;1.20;;;27.70;81.50;;;;;;4206739;28;20051;-63
2021/11/23 04:26:53;;;;;;;3.10;1.48;;;27.80;81.40;;;;;;4210696;28;20129;-63
2021/11/23 04:28:58;;;;;;;3.13;1.77;;;27.80;81.40;;;;;;4201075;28;20097;-63
2021/11/23 04:31:03;;;;;;;3.65;2.00;;;27.80;81.50;;;;;;4204294;28;20563;-63
2021/11/23 04:33:09;;;;;;;6.47;1.95;;;27.90;80.50;;;;;;4204850;28;20045;-63
2021/11/23 04:35:14;;;;;;;4.03;1.63;;;27.90;81.20;;;;;;4195243;28;20079;-63
2021/11/23 04:37:18;;;;;;;4.45;1.58;;;27.90;81.10;;;;;;4211532;28;20060;-63
2021/11/23 04:39:22;;;;;;;5.20;1.90;;;28.00;81.70;;;;;;4204222;28;20048;-63
2021/11/23 04:41:27;;;;;;;4.13;1.67;;;28.00;81.70;;;;;;4210907;28;20310;-63
2021/11/23 04:43:32;;;;;;;3.00;1.80;;;28.10;81.70;;;;;;4211189;28;20173;-63
2021/11/23 04:45:37;;;;;;;2.83;1.52;;;28.10;81.10;;;;;;4211100;28;20466;-63
2021/11/23 04:47:41;;;;;;;5.47;2.83;;;28.20;80.80;;;;;;4203591;28;20071;-64
2021/11/23 04:49:46;;;;;;;6.03;2.15;;;28.20;81.20;;;;;;4206550;28;20048;-63
2021/11/23 04:51:50;;;;;;;3.35;2.03;;;28.30;80.70;;;;;;4207444;28;20041;-63
2021/11/23 04:53:55;;;;;;;5.40;1.80;;;28.20;79.90;;;;;;4201847;28;20044;-64
2021/11/23 04:55:59;;;;;;;4.55;1.88;;;28.30;80.30;;;;;;4201427;28;20056;-64
2021/11/23 04:58:09;;;;;;;5.13;2.20;;;28.30;80.30;;;;;;4202904;28;20429;-64
2021/11/23 05:00:15;;;;;;;2.22;1.60;;;28.30;80.00;;;;;;4201083;28;20052;-64
2021/11/23 05:02:22;;;;;;;9.05;1.88;;;28.30;79.70;;;;;;4199797;28;20461;-63
2021/11/23 05:04:27;;;;;;;5.40;2.10;;;28.40;79.80;;;;;;4207965;28;20101;-64
2021/11/23 05:06:31;;;;;;;4.28;1.70;;;28.40;79.80;;;;;;4209630;28;20060;-63
2021/11/23 05:08:37;;;;;;;8.43;2.05;;;28.50;79.50;;;;;;4210912;28;20036;-63
2021/11/23 05:10:41;;;;;;;5.25;3.25;;;28.50;79.90;;;;;;4208670;28;20058;-63
2021/11/23 05:12:45;;;;;;;9.55;2.40;;;28.60;80.20;;;;;;4201569;28;20087;-63
2021/11/23 05:14:51;;;;;;;3.72;2.40;;;28.70;79.80;;;;;;4204294;28;20359;-63
2021/11/23 05:16:56;;;;;;;4.03;2.00;;;28.70;79.70;;;;;;4201946;28;20068;-63
2021/11/23 05:19:00;;;;;;;8.15;1.83;;;28.80;79.80;;;;;;4204914;28;20056;-64
2021/11/23 05:21:07;;;;;;;2.13;1.40;;;28.80;79.50;;;;;;4204649;28;20044;-63
2021/11/23 05:23:11;;;;;;;4.60;1.40;;;28.70;79.00;;;;;;4205327;28;20060;-63
2021/11/23 05:25:16;;;;;;;4.07;1.77;;;28.80;79.50;;;;;;4211848;28;20048;-63
2021/11/23 05:27:20;;;;;;;5.53;1.45;;;28.80;79.30;;;;;;4208229;28;20044;-64
2021/11/23 05:29:24;;;;;;;3.60;1.30;;;28.60;78.30;;;;;;4205960;28;20066;-66
2021/11/23 05:31:29;;;;;;;7.00;1.40;;;28.50;79.20;;;;;;4204195;28;20041;-64
2021/11/23 05:33:34;;;;;;;4.93;1.38;;;28.60;79.10;;;;;;4202990;28;20099;-65
2021/11/23 05:35:39;;;;;;;2.38;1.20;;;28.60;79.70;;;;;;4202454;28;20073;-63
2021/11/23 05:37:45;;;;;;;4.78;1.50;;;28.70;79.30;;;;;;4208807;28;20040;-65
2021/11/23 05:39:50;;;;;;;2.58;1.50;;;28.80;79.40;;;;;;4208658;28;20409;-66
2021/11/23 05:41:54;;;;;;;6.50;1.30;;;28.80;79.30;;;;;;4198968;28;20514;-66
2021/11/23 05:43:59;;;;;;;3.88;1.40;;;28.90;80.00;;;;;;4200394;28;20091;-65
2021/11/23 05:46:03;;;;;;;4.20;1.33;;;28.90;79.10;;;;;;4180987;28;20726;-65
2021/11/23 05:48:08;;;;;;;4.18;1.40;;;28.90;79.10;;;;;;4194693;28;20059;-67
2021/11/23 05:50:12;;;;;;;7.88;1.30;;;29.00;79.00;;;;;;4195174;28;20140;-65
2021/11/23 05:52:18;;;;;;;2.60;1.08;;;29.00;78.80;;;;;;4201584;28;20050;-66
2021/11/23 05:54:22;;;;;;;7.03;1.42;;;29.00;78.30;;;;;;4205364;28;20127;-67
2021/11/23 05:56:27;;;;;;;2.47;0.98;;;29.00;77.80;;;;;;4205540;28;20036;-66
2021/11/23 05:58:31;;;;;;;3.22;1.40;;;28.90;78.10;;;;;;4211959;28;20597;-66
2021/11/23 06:00:36;;;;;;;3.58;1.08;;;29.00;78.20;;;;;;4205397;28;20466;-65
2021/11/23 06:02:40;;;;;;;3.97;1.40;;;29.00;77.60;;;;;;4200413;28;20044;-66
2021/11/23 06:04:45;;;;;;;2.03;1.23;;;29.00;77.70;;;;;;4200808;28;20316;-65
2021/11/23 06:06:49;;;;;;;7.63;1.48;;;29.00;77.60;;;;;;4202380;28;20156;-65
2021/11/23 06:08:54;;;;;;;2.67;1.38;;;29.00;78.30;;;;;;4201565;28;20047;-66
2021/11/23 06:10:58;;;;;;;4.50;1.20;;;29.10;78.20;;;;;;4202605;28;20054;-66
2021/11/23 06:13:03;;;;;;;3.60;1.50;;;29.10;77.90;;;;;;4202311;28;20052;-65
2021/11/23 06:15:10;;;;;;;3.83;1.17;;;29.10;77.40;;;;;;4207928;28;20043;-66
2021/11/23 06:17:14;;;;;;;4.35;1.50;;;29.10;77.60;;;;;;4202363;28;20071;-67
2021/11/23 06:19:19;;;;;;;2.67;1.13;;;29.10;77.70;;;;;;4200088;28;20044;-67
2021/11/23 06:21:25;;;;;;;3.97;1.20;;;29.20;78.00;;;;;;4201284;28;20050;-67
2021/11/23 06:23:29;;;;;;;4.00;1.30;;;29.20;77.90;;;;;;4203096;28;20122;-66
2021/11/23 06:25:34;;;;;;;6.30;1.40;;;29.30;77.70;;;;;;4203118;28;20048;-67
2021/11/23 06:27:38;;;;;;;4.97;1.65;;;29.30;77.90;;;;;;4200372;28;20093;-67
2021/11/23 06:29:43;;;;;;;2.67;1.25;;;29.30;78.10;;;;;;4202884;28;20143;-66
2021/11/23 06:31:47;;;;;;;3.80;1.38;;;29.40;77.80;;;;;;4202265;28;20131;-66
2021/11/23 06:33:54;;;;;;;3.65;1.40;;;29.40;77.70;;;;;;4202900;28;20083;-67
2021/11/23 06:35:59;;;;;;;3.20;1.45;;;29.40;77.50;;;;;;4204619;28;20062;-66
2021/11/23 06:38:04;;;;;;;1.90;1.30;;;29.40;77.50;;;;;;4209449;28;20051;-66
2021/11/23 06:40:09;;;;;;;2.58;1.30;;;29.40;77.40;;;;;;4209592;28;20393;-67
2021/11/23 06:42:13;;;;;;;3.88;1.25;;;29.30;76.60;;;;;;4202809;28;20174;-67
2021/11/23 06:44:18;;;;;;;3.55;1.48;;;29.30;77.30;;;;;;4195780;28;20575;-67
2021/11/23 06:46:22;;;;;;;5.55;1.63;;;29.30;77.50;;;;;;4202467;28;20041;-67
2021/11/23 06:48:27;;;;;;;2.75;1.58;;;29.30;78.10;;;;;;4198441;28;20037;-67
2021/11/23 06:50:32;;;;;;;6.20;1.65;;;29.40;78.90;;;;;;4202819;28;20044;-66
2021/11/23 06:52:36;;;;;;;3.92;1.80;;;29.40;78.00;;;;;;4202513;28;20047;-66
2021/11/23 06:54:41;;;;;;;4.35;1.50;;;29.40;78.00;;;;;;4201583;28;20040;-67
2021/11/23 06:56:46;;;;;;;1.95;1.35;;;29.50;77.90;;;;;;4200891;28;20043;-66
2021/11/23 06:58:50;;;;;;;3.38;1.60;;;29.50;77.50;;;;;;4200856;28;20534;-66
2021/11/23 07:00:55;;;;;;;4.15;1.52;;;29.50;77.50;;;;;;4205168;28;20052;-67
2021/11/23 07:02:59;;;;;;;4.03;1.60;;;29.50;77.80;;;;;;4191968;28;20056;-67
2021/11/23 07:05:05;;;;;;;4.75;1.60;;;29.50;78.10;;;;;;4201067;28;20603;-67
2021/11/23 07:07:09;;;;;;;2.78;1.60;;;29.60;77.30;;;;;;4202634;28;20163;-67
2021/11/23 07:09:14;;;;;;;3.80;1.50;;;29.50;77.20;;;;;;4203717;28;20044;-67
2021/11/23 07:11:19;;;;;;;2.58;1.40;;;29.50;77.50;;;;;;4211935;28;20090;-67
2021/11/23 07:13:24;;;;;;;3.60;1.30;;;29.50;77.30;;;;;;4200580;28;20056;-67
2021/11/23 07:15:28;;;;;;;3.70;1.60;;;29.60;77.30;;;;;;4203883;28;20040;-67
2021/11/23 07:17:33;;;;;;;3.20;1.48;;;29.70;77.50;;;;;;4202605;28;20047;-67
2021/11/23 07:19:37;;;;;;;12.15;1.73;;;29.80;77.40;;;;;;4203415;28;20074;-67
2021/11/23 07:21:42;;;;;;;3.55;1.67;;;29.80;77.40;;;;;;4197606;28;20051;-67
2021/11/23 07:23:46;;;;;;;9.95;1.55;;;29.80;76.40;;;;;;4203301;28;20124;-67
2021/11/23 07:25:51;;;;;;;4.43;1.50;;;29.80;76.40;;;;;;4203860;28;20462;-67
2021/11/23 07:27:55;;;;;;;3.72;1.35;;;29.80;76.90;;;;;;4201440;28;20056;-67
2021/11/23 07:30:00;;;;;;;3.97;1.70;;;29.70;76.70;;;;;;4202949;28;20059;-67
2021/11/23 07:32:05;;;;;;;6.07;1.70;;;29.70;76.70;;;;;;4202773;28;20147;-67
2021/11/23 07:34:10;;;;;;;3.42;1.55;;;29.80;76.80;;;;;;4203349;28;20048;-67
2021/11/23 07:36:17;;;;;;;6.78;2.13;;;29.80;76.80;;;;;;4202303;28;20048;-67
2021/11/23 07:38:22;;;;;;;6.53;3.10;;;29.80;76.90;;;;;;4202637;28;20048;-67
2021/11/23 07:40:27;;;;;;;4.50;2.42;;;29.80;77.00;;;;;;4202808;28;20086;-67
2021/11/23 07:42:31;;;;;;;3.80;2.50;;;29.80;76.60;;;;;;4202832;28;20052;-66
2021/11/23 07:44:36;;;;;;;5.05;2.25;;;29.80;76.30;;;;;;4203226;28;20414;-66
2021/11/23 07:46:45;;;;;;;5.82;1.60;;;29.90;76.60;;;;;;4201773;28;20525;-67
2021/11/23 07:48:49;;;;;;;2.33;1.30;;;29.90;76.40;;;;;;4203919;28;20482;-67
2021/11/23 07:50:54;;;;;;;3.40;1.30;;;29.80;75.70;;;;;;4203385;28;20078;-67
2021/11/23 07:52:58;;;;;;;2.28;1.35;;;29.80;75.60;;;;;;4200413;28;20041;-66
2021/11/23 07:55:04;;;;;;;2.17;1.30;;;29.80;75.50;;;;;;4198112;28;20040;-66
2021/11/23 07:57:08;;;;;;;3.17;1.40;;;29.90;76.30;;;;;;4203454;28;20036;-67
2021/11/23 07:59:13;;;;;;;4.53;1.35;;;29.80;75.80;;;;;;4204611;28;20535;-67
2021/11/23 08:01:17;;;;;;;4.93;1.40;;;29.90;75.60;;;;;;4200566;28;20512;-67
2021/11/23 08:03:23;;;;;;;5.97;1.80;;;29.80;76.00;;;;;;4203641;28;20040;-66
2021/11/23 08:05:28;;;;;;;3.58;1.13;;;29.80;76.00;;;;;;4202333;28;20044;-67
2021/11/23 08:07:32;;;;;;;5.50;1.58;;;29.70;76.20;;;;;;4202573;28;20517;-67
2021/11/23 08:09:37;;;;;;;3.53;1.30;;;29.70;76.60;;;;;;4201394;28;20060;-66
2021/11/23 08:11:43;;;;;;;5.10;1.27;;;29.60;76.30;;;;;;4203506;28;20067;-67
2021/11/23 08:13:48;;;;;;;3.45;1.35;;;29.60;76.40;;;;;;4203514;28;20056;-66
2021/11/23 08:15:52;;;;;;;3.60;1.50;;;29.60;76.40;;;;;;4203657;28;20080;-66
2021/11/23 08:17:56;;;;;;;2.60;1.48;;;29.60;76.40;;;;;;4201272;28;20119;-66
2021/11/23 08:20:01;;;;;;;2.47;1.52;;;29.60;76.60;;;;;;4196654;28;20403;-66
2021/11/23 08:22:05;;;;;;;6.72;2.47;;;29.60;76.70;;;;;;4200604;28;20436;-67
2021/11/23 08:24:11;;;;;;;6.25;2.38;;;29.60;76.40;;;;;;4197449;28;20082;-66
2021/11/23 08:26:15;;;;;;;4.43;1.23;;;29.60;76.70;;;;;;4195259;28;20405;-66
2021/11/23 08:28:23;;;;;;;4.45;1.45;;;29.60;75.70;;;;;;4201365;28;20051;-66
2021/11/23 08:30:28;;;;;;;4.40;1.33;;;29.70;77.20;;;;;;4203476;28;20109;-67
2021/11/23 08:32:33;;;;;;;4.15;1.30;;;29.60;76.70;;;;;;4201276;28;20040;-67
2021/11/23 08:34:37;;;;;;;3.50;1.23;;;29.70;76.30;;;;;;4198761;28;20059;-67
2021/11/23 08:36:41;;;;;;;3.75;1.40;;;29.60;76.20;;;;;;4201611;28;20452;-67
2021/11/23 08:38:46;;;;;;;2.38;1.40;;;29.60;76.10;;;;;;4202040;28;20048;-67
2021/11/23 08:40:52;;;;;;;4.80;1.60;;;29.60;76.40;;;;;;4203413;28;20551;-66
2021/11/23 08:42:58;;;;;;;5.93;1.70;;;29.50;76.30;;;;;;4200790;28;20064;-66
2021/11/23 08:45:04;;;;;;;6.78;1.55;;;29.60;76.60;;;;;;4198800;28;20124;-67
2021/11/23 08:47:08;;;;;;;4.18;1.70;;;29.50;76.50;;;;;;4200696;28;20118;-66
2021/11/23 08:49:13;;;;;;;1.67;1.15;;;29.50;77.00;;;;;;4203010;28;20044;-66
2021/11/23 08:51:25;;;;;;;2.90;1.35;;;29.50;76.60;;;;;;4200557;28;20048;-66
2021/11/23 08:53:30;;;;;;;6.78;1.50;;;29.50;76.90;;;;;;4204928;28;20705;-66
2021/11/23 08:55:36;;;;;;;2.92;1.50;;;29.40;76.30;;;;;;4208023;28;20041;-66
2021/11/23 08:57:41;;;;;;;2.53;1.33;;;29.40;76.30;;;;;;4204184;28;20445;-66
2021/11/23 08:59:51;;;;;;;4.70;1.70;;;29.40;76.50;;;;;;4204903;28;20040;-65
2021/11/23 09:01:56;;;;;;;7.38;1.80;;;29.40;76.80;;;;;;4206933;28;20468;-64
2021/11/23 09:04:03;;;;;;;8.93;1.65;;;29.40;77.30;;;;;;4199820;28;20102;-63
2021/11/23 09:06:08;;;;;;;9.32;1.80;;;29.40;77.50;;;;;;4198298;28;20047;-66
2021/11/23 09:08:12;;;;;;;11.68;2.97;;;29.30;77.70;;;;;;4201534;28;20405;-66
2021/11/23 09:10:20;;;;;;;7.30;1.73;;;29.30;77.70;;;;;;4203773;28;20057;-66
2021/11/23 09:12:24;;;;;;;4.72;1.70;;;29.30;77.50;;;;;;4203456;28;20194;-66
2021/11/23 09:14:30;;;;;;;6.03;1.50;;;29.30;77.30;;;;;;4205475;28;20121;-66
2021/11/23 09:16:35;;;;;;;3.13;1.75;;;29.30;77.20;;;;;;4204048;28;20048;-66
2021/11/23 09:18:40;;;;;;;3.58;1.60;;;29.30;77.30;;;;;;4205445;28;20074;-66
2021/11/23 09:20:46;;;;;;;5.85;1.60;;;29.30;77.10;;;;;;4201949;28;20065;-66
2021/11/23 09:22:51;;;;;;;5.90;1.67;;;29.20;77.60;;;;;;4206109;28;20045;-66
2021/11/23 09:24:55;;;;;;;2.15;1.33;;;29.20;77.70;;;;;;4205437;28;20044;-66
2021/11/23 09:27:00;;;;;;;8.65;1.90;;;29.10;77.70;;;;;;4201869;28;20044;-66
2021/11/23 09:29:05;;;;;;;4.63;1.88;;;29.10;77.80;;;;;;4195644;28;20067;-66
2021/11/23 09:31:09;;;;;;;4.22;1.77;;;29.20;78.00;;;;;;4205359;28;20144;-66
2021/11/23 09:33:15;;;;;;;4.63;1.58;;;29.20;78.00;;;;;;4207474;28;20044;-66
2021/11/23 09:35:21;;;;;;;13.57;2.08;;;29.20;78.10;;;;;;4205246;28;20056;-66
2021/11/23 09:37:26;;;;;;;7.15;1.85;;;29.20;78.20;;;;;;4201420;28;20119;-66
2021/11/23 09:39:31;;;;;;;6.28;2.30;;;29.20;78.20;;;;;;4204356;28;20040;-66
2021/11/23 09:41:39;;;;;;;7.57;2.13;;;29.20;78.00;;;;;;4204272;28;20036;-66
2021/11/23 09:43:44;;;;;;;7.32;2.65;;;29.10;78.30;;;;;;4196780;28;20510;-66
2021/11/23 09:45:48;;;;;;;3.20;2.05;;;29.10;79.00;;;;;;4201476;28;20036;-66
2021/11/23 09:47:53;;;;;;;6.53;2.15;;;29.10;78.70;;;;;;4199454;28;20048;-66
2021/11/23 09:49:58;;;;;;;5.30;2.03;;;29.00;78.30;;;;;;4210994;28;20118;-66
2021/11/23 09:52:03;;;;;;;5.65;2.13;;;29.00;78.20;;;;;;4210338;28;20040;-66
2021/11/23 09:54:09;;;;;;;7.20;2.30;;;29.00;78.10;;;;;;4204597;28;20497;-66
2021/11/23 09:56:13;;;;;;;8.70;2.33;;;29.00;78.10;;;;;;4211607;28;20585;-66
2021/11/23 09:58:18;;;;;;;7.57;2.58;;;28.90;78.00;;;;;;4208119;28;20409;-66
2021/11/23 10:00:32;;;;;;;9.40;2.60;;;28.90;78.20;;;;;;4210349;28;20060;-67
2021/11/23 10:02:37;;;;;;;9.20;2.75;;;28.90;78.20;;;;;;4211343;28;20048;-66
2021/11/23 10:04:56;;;;;;;7.22;2.92;;;28.90;78.30;;;;;;4209805;28;20078;-66
2021/11/23 10:07:03;;;;;;;8.80;3.05;;;28.90;78.30;;;;;;4208267;28;20089;-67
2021/11/23 10:09:07;;;;;;;10.57;4.32;;;28.90;78.40;;;;;;4205578;28;20535;-68
2021/11/23 10:11:19;;;;;;;8.48;4.50;;;28.80;78.50;;;;;;4202479;28;20052;-65
2021/11/23 10:13:24;;;;;;;9.88;5.05;;;28.90;78.70;;;;;;4205510;28;20536;-68
2021/11/23 10:15:34;;;;;;;14.50;4.63;;;28.80;78.80;;;;;;4204249;28;20079;-68
2021/11/23 10:17:46;;;;;;;9.55;4.07;;;28.80;79.20;;;;;;4203816;28;20044;-67
2021/11/23 10:19:51;;;;;;;9.35;4.35;;;28.70;79.10;;;;;;4202838;28;20043;-66
2021/11/23 10:21:56;;;;;;;7.47;3.53;;;28.70;79.10;;;;;;4202842;28;20040;-67
2021/11/23 10:24:01;;;;;;;8.57;4.75;;;28.70;79.10;;;;;;4202812;28;20199;-67
2021/11/23 10:26:18;;;;;;;12.52;5.13;;;28.70;79.20;;;;;;4202768;28;20143;-68
2021/11/23 10:28:27;;;;;;;12.85;5.78;;;28.70;79.30;;;;;;4204095;28;20131;-66
2021/11/23 10:30:31;;;;;;;13.02;6.00;;;28.60;79.40;;;;;;4203631;28;20411;-67
2021/11/23 10:32:49;;;;;;;8.35;6.00;;;28.60;79.40;;;;;;4201291;28;20055;-67
2021/11/23 10:34:54;;;;;;;10.63;5.50;;;28.60;80.10;;;;;;4199976;28;20043;-67
2021/11/23 10:36:59;;;;;;;7.82;4.22;;;28.60;79.30;;;;;;4201790;28;20494;-67
2021/11/23 10:39:21;;;;;;;12.18;3.63;;;28.50;79.30;;;;;;4198916;28;20044;-67
2021/11/23 10:41:25;;;;;;;10.70;3.58;;;28.50;79.30;;;;;;4197721;28;20118;-67
2021/11/23 10:43:30;;;;;;;11.63;3.17;;;28.60;79.60;;;;;;4199098;28;20044;-67
2021/11/23 10:45:40;;;;;;;7.78;2.80;;;28.50;79.40;;;;;;4199346;28;20214;-66
2021/11/23 10:47:46;;;;;;;13.85;2.33;;;28.50;79.30;;;;;;4199387;28;20376;-67
2021/11/23 10:49:52;;;;;;;12.07;2.47;;;28.40;79.60;;;;;;4199312;28;20608;-67
2021/11/23 10:51:57;;;;;;;9.32;2.50;;;28.40;79.60;;;;;;4203117;28;20399;-68
2021/11/23 10:54:14;;;;;;;10.13;2.78;;;28.40;79.70;;;;;;4198329;28;20045;-67
2021/11/23 10:56:19;;;;;;;9.52;2.20;;;28.50;79.70;;;;;;4201057;28;20402;-68
2021/11/23 10:58:24;;;;;;;4.78;2.20;;;28.50;79.90;;;;;;4198546;28;20086;-68
2021/11/23 11:00:33;;;;;;;5.93;2.47;;;28.40;79.90;;;;;;4201406;28;20036;-68
2021/11/23 11:02:39;;;;;;;8.30;2.50;;;28.40;80.00;;;;;;4201702;28;20059;-67
2021/11/23 11:04:44;;;;;;;9.07;2.45;;;28.40;80.20;;;;;;4200166;28;20056;-67
2021/11/23 11:06:50;;;;;;;7.88;3.28;;;28.40;80.40;;;;;;4200986;28;20379;-68
2021/11/23 11:08:54;;;;;;;10.95;3.10;;;28.40;80.70;;;;;;4202068;28;20036;-69